sensor_id;sensor_type;location;lat;lon;timestamp;P1;durP1;ratioP1;P2;durP2;ratioP2
53497;SDS011;39382;47.168;16.008;2023-07-29T00:01:42;1.52;;;1.38;;
53497;SDS011;39382;47.168;16.008;2023-07-29T00:04:08;1.77;;;1.40;;
53497;SDS011;39382;47.168;16.008;2023-07-29T00:06:34;2.17;;;1.65;;
53497;SDS011;39382;47.168;16.008;2023-07-29T00:09:00;1.33;;;1.23;;
53497;SDS011;39382;47.168;16.008;2023-07-29T00:11:27;1.17;;;1.05;;
53497;SDS011;39382;47.168;16.008;2023-07-29T00:13:53;1.38;;;1.25;;
53497;SDS011;39382;47.168;16.008;2023-07-29T00:16:19;2.63;;;1.40;;
53497;SDS011;39382;47.168;16.008;2023-07-29T00:18:47;2.08;;;1.88;;
53497;SDS011;39382;47.168;16.008;2023-07-29T00:21:14;2.42;;;1.85;;
53497;SDS011;39382;47.168;16.008;2023-07-29T00:23:40;3.22;;;1.58;;
53497;SDS011;39382;47.168;16.008;2023-07-29T00:26:05;2.75;;;1.30;;
53497;SDS011;39382;47.168;16.008;2023-07-29T00:28:31;2.42;;;1.95;;
53497;SDS011;39382;47.168;16.008;2023-07-29T00:30:57;4.30;;;1.88;;
53497;SDS011;39382;47.168;16.008;2023-07-29T00:33:22;5.03;;;1.45;;
53497;SDS011;39382;47.168;16.008;2023-07-29T00:35:48;3.10;;;1.77;;
53497;SDS011;39382;47.168;16.008;2023-07-29T00:38:14;2.60;;;2.40;;
53497;SDS011;39382;47.168;16.008;2023-07-29T00:40:39;4.22;;;1.52;;
53497;SDS011;39382;47.168;16.008;2023-07-29T00:43:05;2.63;;;2.00;;
53497;SDS011;39382;47.168;16.008;2023-07-29T00:45:31;2.13;;;1.70;;
53497;SDS011;39382;47.168;16.008;2023-07-29T00:47:58;1.95;;;1.55;;
53497;SDS011;39382;47.168;16.008;2023-07-29T00:50:24;3.88;;;1.55;;
53497;SDS011;39382;47.168;16.008;2023-07-29T00:52:52;6.75;;;1.95;;
53497;SDS011;39382;47.168;16.008;2023-07-29T00:55:19;1.98;;;1.58;;
53497;SDS011;39382;47.168;16.008;2023-07-29T00:57:45;1.80;;;1.33;;
53497;SDS011;39382;47.168;16.008;2023-07-29T01:00:14;3.40;;;1.80;;
53497;SDS011;39382;47.168;16.008;2023-07-29T01:02:42;3.22;;;2.03;;
53497;SDS011;39382;47.168;16.008;2023-07-29T01:05:08;3.45;;;1.40;;
53497;SDS011;39382;47.168;16.008;2023-07-29T01:07:41;2.58;;;1.67;;
53497;SDS011;39382;47.168;16.008;2023-07-29T01:10:13;3.13;;;1.92;;
53497;SDS011;39382;47.168;16.008;2023-07-29T01:13:09;3.88;;;1.50;;
53497;SDS011;39382;47.168;16.008;2023-07-29T01:18:22;3.08;;;2.17;;
53497;SDS011;39382;47.168;16.008;2023-07-29T01:20:49;2.83;;;1.80;;
53497;SDS011;39382;47.168;16.008;2023-07-29T01:23:39;5.28;;;1.77;;
53497;SDS011;39382;47.168;16.008;2023-07-29T01:26:04;2.55;;;2.05;;
53497;SDS011;39382;47.168;16.008;2023-07-29T01:28:30;4.97;;;2.22;;
53497;SDS011;39382;47.168;16.008;2023-07-29T01:31:40;1.48;;;1.38;;
53497;SDS011;39382;47.168;16.008;2023-07-29T01:33:57;4.07;;;1.50;;
53497;SDS011;39382;47.168;16.008;2023-07-29T01:36:27;2.53;;;1.42;;
53497;SDS011;39382;47.168;16.008;2023-07-29T01:38:55;2.60;;;1.60;;
53497;SDS011;39382;47.168;16.008;2023-07-29T01:41:22;2.30;;;1.73;;
53497;SDS011;39382;47.168;16.008;2023-07-29T01:43:49;2.28;;;2.03;;
53497;SDS011;39382;47.168;16.008;2023-07-29T01:46:15;1.73;;;1.63;;
53497;SDS011;39382;47.168;16.008;2023-07-29T01:48:41;3.50;;;1.60;;
53497;SDS011;39382;47.168;16.008;2023-07-29T01:51:07;1.75;;;1.65;;
53497;SDS011;39382;47.168;16.008;2023-07-29T01:53:36;2.17;;;1.73;;
53497;SDS011;39382;47.168;16.008;2023-07-29T01:56:01;1.65;;;1.33;;
53497;SDS011;39382;47.168;16.008;2023-07-29T01:58:27;3.08;;;1.60;;
53497;SDS011;39382;47.168;16.008;2023-07-29T02:00:53;2.70;;;1.73;;
53497;SDS011;39382;47.168;16.008;2023-07-29T02:03:18;2.25;;;1.88;;
53497;SDS011;39382;47.168;16.008;2023-07-29T02:05:44;3.63;;;1.77;;
53497;SDS011;39382;47.168;16.008;2023-07-29T02:08:10;7.78;;;2.00;;
53497;SDS011;39382;47.168;16.008;2023-07-29T02:10:36;4.65;;;1.65;;
53497;SDS011;39382;47.168;16.008;2023-07-29T02:13:02;2.42;;;1.55;;
53497;SDS011;39382;47.168;16.008;2023-07-29T02:15:28;2.35;;;2.08;;
53497;SDS011;39382;47.168;16.008;2023-07-29T02:17:54;2.50;;;1.50;;
53497;SDS011;39382;47.168;16.008;2023-07-29T02:20:19;2.25;;;1.80;;
53497;SDS011;39382;47.168;16.008;2023-07-29T02:22:45;1.60;;;1.20;;
53497;SDS011;39382;47.168;16.008;2023-07-29T02:25:12;2.95;;;1.38;;
53497;SDS011;39382;47.168;16.008;2023-07-29T02:27:37;2.40;;;1.70;;
53497;SDS011;39382;47.168;16.008;2023-07-29T02:30:03;2.50;;;1.50;;
53497;SDS011;39382;47.168;16.008;2023-07-29T02:32:29;3.08;;;1.70;;
53497;SDS011;39382;47.168;16.008;2023-07-29T02:34:55;3.00;;;1.90;;
53497;SDS011;39382;47.168;16.008;2023-07-29T02:37:20;5.13;;;2.55;;
53497;SDS011;39382;47.168;16.008;2023-07-29T02:39:46;2.83;;;1.60;;
53497;SDS011;39382;47.168;16.008;2023-07-29T02:42:12;2.10;;;1.77;;
53497;SDS011;39382;47.168;16.008;2023-07-29T02:44:37;2.25;;;1.60;;
53497;SDS011;39382;47.168;16.008;2023-07-29T02:47:04;3.65;;;1.20;;
53497;SDS011;39382;47.168;16.008;2023-07-29T02:49:29;3.05;;;1.85;;
53497;SDS011;39382;47.168;16.008;2023-07-29T02:51:55;4.95;;;1.92;;
53497;SDS011;39382;47.168;16.008;2023-07-29T02:54:21;3.97;;;1.70;;
53497;SDS011;39382;47.168;16.008;2023-07-29T02:56:46;4.93;;;1.55;;
53497;SDS011;39382;47.168;16.008;2023-07-29T02:59:12;5.00;;;1.67;;
53497;SDS011;39382;47.168;16.008;2023-07-29T03:01:38;2.50;;;1.08;;
53497;SDS011;39382;47.168;16.008;2023-07-29T03:04:03;2.10;;;1.90;;
53497;SDS011;39382;47.168;16.008;2023-07-29T03:06:29;1.52;;;1.27;;
53497;SDS011;39382;47.168;16.008;2023-07-29T03:08:54;5.38;;;1.60;;
53497;SDS011;39382;47.168;16.008;2023-07-29T03:11:20;5.25;;;1.73;;
53497;SDS011;39382;47.168;16.008;2023-07-29T03:13:45;1.83;;;1.40;;
53497;SDS011;39382;47.168;16.008;2023-07-29T03:16:13;13.15;;;1.65;;
53497;SDS011;39382;47.168;16.008;2023-07-29T03:18:39;3.33;;;1.60;;
53497;SDS011;39382;47.168;16.008;2023-07-29T03:21:05;3.80;;;1.40;;
53497;SDS011;39382;47.168;16.008;2023-07-29T03:23:32;5.88;;;1.60;;
53497;SDS011;39382;47.168;16.008;2023-07-29T03:25:59;2.10;;;1.15;;
53497;SDS011;39382;47.168;16.008;2023-07-29T03:28:29;1.95;;;1.63;;
53497;SDS011;39382;47.168;16.008;2023-07-29T03:30:58;2.00;;;1.60;;
53497;SDS011;39382;47.168;16.008;2023-07-29T03:33:24;5.55;;;1.48;;
53497;SDS011;39382;47.168;16.008;2023-07-29T03:35:50;2.42;;;1.92;;
53497;SDS011;39382;47.168;16.008;2023-07-29T03:38:16;1.95;;;1.50;;
53497;SDS011;39382;47.168;16.008;2023-07-29T03:40:42;2.53;;;1.45;;
53497;SDS011;39382;47.168;16.008;2023-07-29T03:43:09;2.20;;;1.52;;
53497;SDS011;39382;47.168;16.008;2023-07-29T03:45:35;3.60;;;1.42;;
53497;SDS011;39382;47.168;16.008;2023-07-29T03:48:01;2.35;;;1.38;;
53497;SDS011;39382;47.168;16.008;2023-07-29T03:50:27;4.85;;;1.63;;
53497;SDS011;39382;47.168;16.008;2023-07-29T03:52:53;2.50;;;1.60;;
53497;SDS011;39382;47.168;16.008;2023-07-29T03:55:19;3.10;;;1.60;;
53497;SDS011;39382;47.168;16.008;2023-07-29T03:57:45;2.47;;;1.73;;
53497;SDS011;39382;47.168;16.008;2023-07-29T04:00:11;1.75;;;1.40;;
53497;SDS011;39382;47.168;16.008;2023-07-29T04:02:37;5.47;;;1.77;;
53497;SDS011;39382;47.168;16.008;2023-07-29T04:05:03;3.28;;;1.88;;
53497;SDS011;39382;47.168;16.008;2023-07-29T04:07:30;2.55;;;1.80;;
53497;SDS011;39382;47.168;16.008;2023-07-29T04:09:55;2.42;;;1.80;;
53497;SDS011;39382;47.168;16.008;2023-07-29T04:12:21;3.15;;;1.80;;
53497;SDS011;39382;47.168;16.008;2023-07-29T04:14:48;6.20;;;1.77;;
53497;SDS011;39382;47.168;16.008;2023-07-29T04:17:14;3.30;;;1.58;;
53497;SDS011;39382;47.168;16.008;2023-07-29T04:19:39;2.05;;;1.55;;
53497;SDS011;39382;47.168;16.008;2023-07-29T04:22:05;1.95;;;1.75;;
53497;SDS011;39382;47.168;16.008;2023-07-29T04:24:30;8.25;;;1.73;;
53497;SDS011;39382;47.168;16.008;2023-07-29T04:26:56;4.72;;;1.58;;
53497;SDS011;39382;47.168;16.008;2023-07-29T04:29:22;2.63;;;1.48;;
53497;SDS011;39382;47.168;16.008;2023-07-29T04:31:48;2.25;;;1.70;;
53497;SDS011;39382;47.168;16.008;2023-07-29T04:34:17;4.43;;;1.33;;
53497;SDS011;39382;47.168;16.008;2023-07-29T04:36:44;3.35;;;2.05;;
53497;SDS011;39382;47.168;16.008;2023-07-29T04:39:10;1.73;;;1.63;;
53497;SDS011;39382;47.168;16.008;2023-07-29T04:41:36;3.25;;;2.00;;
53497;SDS011;39382;47.168;16.008;2023-07-29T04:44:01;1.63;;;1.52;;
53497;SDS011;39382;47.168;16.008;2023-07-29T04:46:27;5.40;;;3.28;;
53497;SDS011;39382;47.168;16.008;2023-07-29T04:48:52;5.93;;;2.10;;
53497;SDS011;39382;47.168;16.008;2023-07-29T04:51:18;2.53;;;1.67;;
53497;SDS011;39382;47.168;16.008;2023-07-29T04:53:44;2.70;;;1.98;;
53497;SDS011;39382;47.168;16.008;2023-07-29T04:56:09;4.75;;;2.05;;
53497;SDS011;39382;47.168;16.008;2023-07-29T04:58:35;3.78;;;1.98;;
53497;SDS011;39382;47.168;16.008;2023-07-29T05:01:04;2.95;;;2.17;;
53497;SDS011;39382;47.168;16.008;2023-07-29T05:03:29;2.97;;;2.05;;
53497;SDS011;39382;47.168;16.008;2023-07-29T05:05:55;3.35;;;2.03;;
53497;SDS011;39382;47.168;16.008;2023-07-29T05:08:22;4.07;;;1.98;;
53497;SDS011;39382;47.168;16.008;2023-07-29T05:10:51;2.45;;;1.52;;
53497;SDS011;39382;47.168;16.008;2023-07-29T05:13:17;6.47;;;2.15;;
53497;SDS011;39382;47.168;16.008;2023-07-29T05:15:44;10.23;;;2.38;;
53497;SDS011;39382;47.168;16.008;2023-07-29T05:18:09;4.10;;;2.10;;
53497;SDS011;39382;47.168;16.008;2023-07-29T05:20:36;2.70;;;1.55;;
53497;SDS011;39382;47.168;16.008;2023-07-29T05:23:01;1.73;;;1.30;;
53497;SDS011;39382;47.168;16.008;2023-07-29T05:25:27;3.67;;;1.65;;
53497;SDS011;39382;47.168;16.008;2023-07-29T05:27:52;1.73;;;1.50;;
53497;SDS011;39382;47.168;16.008;2023-07-29T05:30:18;6.80;;;1.88;;
53497;SDS011;39382;47.168;16.008;2023-07-29T05:32:44;1.95;;;1.63;;
53497;SDS011;39382;47.168;16.008;2023-07-29T05:35:10;2.60;;;1.30;;
53497;SDS011;39382;47.168;16.008;2023-07-29T05:37:39;2.58;;;1.75;;
53497;SDS011;39382;47.168;16.008;2023-07-29T05:40:05;1.45;;;1.35;;
53497;SDS011;39382;47.168;16.008;2023-07-29T05:42:32;2.28;;;1.42;;
53497;SDS011;39382;47.168;16.008;2023-07-29T05:44:58;6.03;;;1.92;;
53497;SDS011;39382;47.168;16.008;2023-07-29T05:47:23;3.20;;;1.50;;
53497;SDS011;39382;47.168;16.008;2023-07-29T05:49:49;1.85;;;1.58;;
53497;SDS011;39382;47.168;16.008;2023-07-29T05:52:15;2.75;;;1.27;;
53497;SDS011;39382;47.168;16.008;2023-07-29T05:54:40;3.75;;;1.85;;
53497;SDS011;39382;47.168;16.008;2023-07-29T05:57:08;4.05;;;1.35;;
53497;SDS011;39382;47.168;16.008;2023-07-29T05:59:34;2.00;;;1.60;;
53497;SDS011;39382;47.168;16.008;2023-07-29T06:02:00;1.25;;;1.17;;
53497;SDS011;39382;47.168;16.008;2023-07-29T06:04:26;4.88;;;1.58;;
53497;SDS011;39382;47.168;16.008;2023-07-29T06:06:52;3.85;;;2.00;;
53497;SDS011;39382;47.168;16.008;2023-07-29T06:09:17;2.72;;;2.15;;
53497;SDS011;39382;47.168;16.008;2023-07-29T06:11:43;2.20;;;2.00;;
53497;SDS011;39382;47.168;16.008;2023-07-29T06:14:08;3.15;;;2.03;;
53497;SDS011;39382;47.168;16.008;2023-07-29T06:16:34;5.85;;;1.60;;
53497;SDS011;39382;47.168;16.008;2023-07-29T06:19:00;13.13;;;1.75;;
53497;SDS011;39382;47.168;16.008;2023-07-29T06:21:25;1.70;;;1.60;;
53497;SDS011;39382;47.168;16.008;2023-07-29T06:23:51;3.92;;;1.35;;
53497;SDS011;39382;47.168;16.008;2023-07-29T06:26:17;2.80;;;1.80;;
53497;SDS011;39382;47.168;16.008;2023-07-29T06:28:42;2.13;;;1.92;;
53497;SDS011;39382;47.168;16.008;2023-07-29T06:31:08;2.63;;;1.48;;
53497;SDS011;39382;47.168;16.008;2023-07-29T06:33:33;1.95;;;1.67;;
53497;SDS011;39382;47.168;16.008;2023-07-29T06:35:59;2.97;;;2.40;;
53497;SDS011;39382;47.168;16.008;2023-07-29T06:38:25;3.60;;;1.65;;
53497;SDS011;39382;47.168;16.008;2023-07-29T06:40:50;3.63;;;1.55;;
53497;SDS011;39382;47.168;16.008;2023-07-29T06:43:17;1.73;;;1.30;;
53497;SDS011;39382;47.168;16.008;2023-07-29T06:45:43;4.10;;;1.63;;
53497;SDS011;39382;47.168;16.008;2023-07-29T06:48:08;1.65;;;1.50;;
53497;SDS011;39382;47.168;16.008;2023-07-29T06:50:34;3.65;;;1.58;;
53497;SDS011;39382;47.168;16.008;2023-07-29T06:52:59;2.00;;;1.80;;
53497;SDS011;39382;47.168;16.008;2023-07-29T06:55:25;6.55;;;1.70;;
53497;SDS011;39382;47.168;16.008;2023-07-29T06:57:51;2.65;;;2.08;;
53497;SDS011;39382;47.168;16.008;2023-07-29T07:00:17;1.83;;;1.73;;
53497;SDS011;39382;47.168;16.008;2023-07-29T07:02:42;2.47;;;2.28;;
53497;SDS011;39382;47.168;16.008;2023-07-29T07:05:08;1.60;;;1.50;;
53497;SDS011;39382;47.168;16.008;2023-07-29T07:07:34;1.88;;;1.65;;
53497;SDS011;39382;47.168;16.008;2023-07-29T07:09:59;2.72;;;2.03;;
53497;SDS011;39382;47.168;16.008;2023-07-29T07:12:25;5.35;;;1.70;;
53497;SDS011;39382;47.168;16.008;2023-07-29T07:14:51;2.28;;;1.70;;
53497;SDS011;39382;47.168;16.008;2023-07-29T07:17:17;8.60;;;1.70;;
53497;SDS011;39382;47.168;16.008;2023-07-29T07:19:43;2.45;;;1.80;;
53497;SDS011;39382;47.168;16.008;2023-07-29T07:22:08;3.33;;;2.03;;
53497;SDS011;39382;47.168;16.008;2023-07-29T07:24:34;4.03;;;1.55;;
53497;SDS011;39382;47.168;16.008;2023-07-29T07:27:00;2.08;;;1.50;;
53497;SDS011;39382;47.168;16.008;2023-07-29T07:29:25;2.75;;;2.10;;
53497;SDS011;39382;47.168;16.008;2023-07-29T07:31:51;3.30;;;2.03;;
53497;SDS011;39382;47.168;16.008;2023-07-29T07:34:18;6.15;;;1.73;;
53497;SDS011;39382;47.168;16.008;2023-07-29T07:36:45;1.80;;;1.70;;
53497;SDS011;39382;47.168;16.008;2023-07-29T07:39:10;2.20;;;1.95;;
53497;SDS011;39382;47.168;16.008;2023-07-29T07:41:36;2.30;;;1.90;;
53497;SDS011;39382;47.168;16.008;2023-07-29T07:44:01;2.63;;;1.40;;
53497;SDS011;39382;47.168;16.008;2023-07-29T07:46:28;4.63;;;1.90;;
53497;SDS011;39382;47.168;16.008;2023-07-29T07:48:53;3.40;;;1.75;;
53497;SDS011;39382;47.168;16.008;2023-07-29T07:51:19;1.75;;;1.50;;
53497;SDS011;39382;47.168;16.008;2023-07-29T07:53:44;2.40;;;1.77;;
53497;SDS011;39382;47.168;16.008;2023-07-29T07:56:10;2.45;;;1.55;;
53497;SDS011;39382;47.168;16.008;2023-07-29T07:58:36;1.95;;;1.58;;
53497;SDS011;39382;47.168;16.008;2023-07-29T08:01:05;1.55;;;1.45;;
53497;SDS011;39382;47.168;16.008;2023-07-29T08:03:32;2.92;;;1.50;;
53497;SDS011;39382;47.168;16.008;2023-07-29T08:05:58;1.63;;;1.42;;
53497;SDS011;39382;47.168;16.008;2023-07-29T08:08:24;4.25;;;1.30;;
53497;SDS011;39382;47.168;16.008;2023-07-29T08:10:52;4.05;;;1.67;;
53497;SDS011;39382;47.168;16.008;2023-07-29T08:13:18;2.13;;;1.63;;
53497;SDS011;39382;47.168;16.008;2023-07-29T08:15:47;1.52;;;1.17;;
53497;SDS011;39382;47.168;16.008;2023-07-29T08:18:14;4.05;;;1.92;;
53497;SDS011;39382;47.168;16.008;2023-07-29T08:20:39;2.88;;;1.48;;
53497;SDS011;39382;47.168;16.008;2023-07-29T08:23:05;2.17;;;1.60;;
53497;SDS011;39382;47.168;16.008;2023-07-29T08:25:31;2.45;;;1.50;;
53497;SDS011;39382;47.168;16.008;2023-07-29T08:27:56;1.67;;;1.58;;
53497;SDS011;39382;47.168;16.008;2023-07-29T08:30:22;3.17;;;1.30;;
53497;SDS011;39382;47.168;16.008;2023-07-29T08:32:47;1.23;;;1.13;;
53497;SDS011;39382;47.168;16.008;2023-07-29T08:35:13;1.10;;;0.90;;
53497;SDS011;39382;47.168;16.008;2023-07-29T08:37:39;2.20;;;1.35;;
53497;SDS011;39382;47.168;16.008;2023-07-29T08:40:05;2.25;;;1.73;;
53497;SDS011;39382;47.168;16.008;2023-07-29T08:42:31;2.10;;;1.70;;
53497;SDS011;39382;47.168;16.008;2023-07-29T08:45:00;3.10;;;1.30;;
53497;SDS011;39382;47.168;16.008;2023-07-29T08:47:35;1.30;;;1.20;;
53497;SDS011;39382;47.168;16.008;2023-07-29T08:50:01;2.55;;;1.42;;
53497;SDS011;39382;47.168;16.008;2023-07-29T08:52:28;1.52;;;1.42;;
53497;SDS011;39382;47.168;16.008;2023-07-29T08:54:54;1.48;;;1.38;;
53497;SDS011;39382;47.168;16.008;2023-07-29T08:57:21;4.00;;;1.60;;
53497;SDS011;39382;47.168;16.008;2023-07-29T08:59:48;1.52;;;1.30;;
53497;SDS011;39382;47.168;16.008;2023-07-29T09:02:14;1.85;;;1.75;;
53497;SDS011;39382;47.168;16.008;2023-07-29T09:04:39;1.27;;;1.17;;
53497;SDS011;39382;47.168;16.008;2023-07-29T09:07:05;1.40;;;1.30;;
53497;SDS011;39382;47.168;16.008;2023-07-29T09:09:32;1.58;;;1.27;;
53497;SDS011;39382;47.168;16.008;2023-07-29T09:11:58;1.50;;;1.23;;
53497;SDS011;39382;47.168;16.008;2023-07-29T09:14:24;1.42;;;1.30;;
53497;SDS011;39382;47.168;16.008;2023-07-29T09:16:49;1.30;;;1.20;;
53497;SDS011;39382;47.168;16.008;2023-07-29T09:19:16;1.52;;;1.15;;
53497;SDS011;39382;47.168;16.008;2023-07-29T09:21:41;1.60;;;1.27;;
53497;SDS011;39382;47.168;16.008;2023-07-29T09:24:07;2.13;;;0.95;;
53497;SDS011;39382;47.168;16.008;2023-07-29T09:26:33;1.00;;;0.95;;
53497;SDS011;39382;47.168;16.008;2023-07-29T09:28:59;0.90;;;0.80;;
53497;SDS011;39382;47.168;16.008;2023-07-29T09:31:26;0.95;;;0.95;;
53497;SDS011;39382;47.168;16.008;2023-07-29T09:33:56;1.48;;;1.02;;
53497;SDS011;39382;47.168;16.008;2023-07-29T09:36:26;2.40;;;1.15;;
53497;SDS011;39382;47.168;16.008;2023-07-29T09:38:52;1.10;;;1.00;;
53497;SDS011;39382;47.168;16.008;2023-07-29T09:41:21;1.35;;;1.02;;
53497;SDS011;39382;47.168;16.008;2023-07-29T09:43:58;1.30;;;1.20;;
53497;SDS011;39382;47.168;16.008;2023-07-29T09:46:25;2.25;;;1.40;;
53497;SDS011;39382;47.168;16.008;2023-07-29T09:48:58;1.10;;;1.00;;
53497;SDS011;39382;47.168;16.008;2023-07-29T09:51:24;1.05;;;0.93;;
53497;SDS011;39382;47.168;16.008;2023-07-29T09:53:49;0.98;;;0.98;;
53497;SDS011;39382;47.168;16.008;2023-07-29T09:56:16;1.45;;;1.20;;
53497;SDS011;39382;47.168;16.008;2023-07-29T09:58:45;0.80;;;0.80;;
53497;SDS011;39382;47.168;16.008;2023-07-29T10:01:11;2.83;;;1.27;;
53497;SDS011;39382;47.168;16.008;2023-07-29T10:03:37;0.85;;;0.82;;
53497;SDS011;39382;47.168;16.008;2023-07-29T10:06:04;1.23;;;0.90;;
53497;SDS011;39382;47.168;16.008;2023-07-29T10:08:31;1.33;;;1.02;;
53497;SDS011;39382;47.168;16.008;2023-07-29T10:11:00;1.58;;;1.42;;
53497;SDS011;39382;47.168;16.008;2023-07-29T10:13:27;2.50;;;1.20;;
53497;SDS011;39382;47.168;16.008;2023-07-29T10:15:56;1.27;;;1.17;;
53497;SDS011;39382;47.168;16.008;2023-07-29T10:18:22;1.80;;;1.10;;
53497;SDS011;39382;47.168;16.008;2023-07-29T10:20:51;1.15;;;1.15;;
53497;SDS011;39382;47.168;16.008;2023-07-29T10:23:19;0.93;;;0.93;;
53497;SDS011;39382;47.168;16.008;2023-07-29T10:25:50;5.13;;;1.27;;
53497;SDS011;39382;47.168;16.008;2023-07-29T10:28:23;1.10;;;0.93;;
53497;SDS011;39382;47.168;16.008;2023-07-29T10:30:51;1.02;;;0.93;;
53497;SDS011;39382;47.168;16.008;2023-07-29T10:33:18;1.35;;;0.90;;
53497;SDS011;39382;47.168;16.008;2023-07-29T10:35:44;2.10;;;1.52;;
53497;SDS011;39382;47.168;16.008;2023-07-29T10:38:10;1.85;;;1.35;;
53497;SDS011;39382;47.168;16.008;2023-07-29T10:40:46;0.95;;;0.85;;
53497;SDS011;39382;47.168;16.008;2023-07-29T10:43:15;1.63;;;1.25;;
53497;SDS011;39382;47.168;16.008;2023-07-29T10:45:48;1.90;;;1.35;;
53497;SDS011;39382;47.168;16.008;2023-07-29T10:48:56;1.52;;;1.42;;
53497;SDS011;39382;47.168;16.008;2023-07-29T10:54:01;2.47;;;1.30;;
53497;SDS011;39382;47.168;16.008;2023-07-29T10:56:49;1.38;;;1.05;;
53497;SDS011;39382;47.168;16.008;2023-07-29T11:01:41;1.30;;;0.98;;
53497;SDS011;39382;47.168;16.008;2023-07-29T11:09:42;1.92;;;1.42;;
53497;SDS011;39382;47.168;16.008;2023-07-29T11:15:21;5.75;;;1.65;;
53497;SDS011;39382;47.168;16.008;2023-07-29T11:20:25;1.33;;;1.15;;
53497;SDS011;39382;47.168;16.008;2023-07-29T11:22:55;1.20;;;1.10;;
53497;SDS011;39382;47.168;16.008;2023-07-29T11:25:23;5.13;;;1.10;;
53497;SDS011;39382;47.168;16.008;2023-07-29T11:27:51;3.08;;;1.20;;
53497;SDS011;39382;47.168;16.008;2023-07-29T11:30:18;1.13;;;1.00;;
53497;SDS011;39382;47.168;16.008;2023-07-29T11:32:44;2.08;;;1.10;;
53497;SDS011;39382;47.168;16.008;2023-07-29T11:35:12;1.58;;;1.00;;
53497;SDS011;39382;47.168;16.008;2023-07-29T11:37:40;1.73;;;0.90;;
53497;SDS011;39382;47.168;16.008;2023-07-29T11:40:07;2.78;;;1.20;;
53497;SDS011;39382;47.168;16.008;2023-07-29T11:42:35;2.47;;;1.33;;
53497;SDS011;39382;47.168;16.008;2023-07-29T11:45:02;1.23;;;1.13;;
53497;SDS011;39382;47.168;16.008;2023-07-29T11:47:30;1.25;;;1.15;;
53497;SDS011;39382;47.168;16.008;2023-07-29T11:49:58;1.25;;;1.10;;
53497;SDS011;39382;47.168;16.008;2023-07-29T11:52:25;1.38;;;1.27;;
53497;SDS011;39382;47.168;16.008;2023-07-29T11:54:53;1.20;;;1.02;;
53497;SDS011;39382;47.168;16.008;2023-07-29T11:57:18;1.20;;;1.10;;
53497;SDS011;39382;47.168;16.008;2023-07-29T11:59:46;1.13;;;1.02;;
53497;SDS011;39382;47.168;16.008;2023-07-29T12:02:12;2.15;;;0.88;;
53497;SDS011;39382;47.168;16.008;2023-07-29T12:04:40;1.67;;;1.08;;
53497;SDS011;39382;47.168;16.008;2023-07-29T12:07:08;0.95;;;0.95;;
53497;SDS011;39382;47.168;16.008;2023-07-29T12:09:34;1.90;;;1.80;;
53497;SDS011;39382;47.168;16.008;2023-07-29T12:12:03;1.35;;;0.98;;
53497;SDS011;39382;47.168;16.008;2023-07-29T12:14:30;1.90;;;1.10;;
53497;SDS011;39382;47.168;16.008;2023-07-29T12:16:56;1.10;;;1.08;;
53497;SDS011;39382;47.168;16.008;2023-07-29T12:19:30;1.85;;;1.50;;
53497;SDS011;39382;47.168;16.008;2023-07-29T12:21:57;1.45;;;0.80;;
53497;SDS011;39382;47.168;16.008;2023-07-29T12:24:22;2.47;;;0.80;;
53497;SDS011;39382;47.168;16.008;2023-07-29T12:26:48;3.20;;;1.02;;
53497;SDS011;39382;47.168;16.008;2023-07-29T12:29:14;1.67;;;1.15;;
53497;SDS011;39382;47.168;16.008;2023-07-29T12:31:44;1.02;;;0.93;;
53497;SDS011;39382;47.168;16.008;2023-07-29T12:34:16;2.08;;;0.82;;
53497;SDS011;39382;47.168;16.008;2023-07-29T12:36:47;1.48;;;1.38;;
53497;SDS011;39382;47.168;16.008;2023-07-29T12:39:16;2.35;;;0.88;;
53497;SDS011;39382;47.168;16.008;2023-07-29T12:41:46;0.85;;;0.80;;
53497;SDS011;39382;47.168;16.008;2023-07-29T12:44:14;1.40;;;1.30;;
53497;SDS011;39382;47.168;16.008;2023-07-29T12:46:39;2.45;;;1.00;;
53497;SDS011;39382;47.168;16.008;2023-07-29T12:49:07;1.20;;;1.05;;
53497;SDS011;39382;47.168;16.008;2023-07-29T12:51:32;1.23;;;1.00;;
53497;SDS011;39382;47.168;16.008;2023-07-29T12:53:58;4.03;;;1.20;;
53497;SDS011;39382;47.168;16.008;2023-07-29T12:56:24;1.10;;;0.98;;
53497;SDS011;39382;47.168;16.008;2023-07-29T12:58:49;1.65;;;1.13;;
53497;SDS011;39382;47.168;16.008;2023-07-29T13:01:15;0.90;;;0.90;;
53497;SDS011;39382;47.168;16.008;2023-07-29T13:03:44;1.10;;;1.00;;
53497;SDS011;39382;47.168;16.008;2023-07-29T13:06:09;1.50;;;1.40;;
53497;SDS011;39382;47.168;16.008;2023-07-29T13:08:35;1.27;;;1.15;;
53497;SDS011;39382;47.168;16.008;2023-07-29T13:11:01;1.23;;;1.13;;
53497;SDS011;39382;47.168;16.008;2023-07-29T13:13:27;1.20;;;1.10;;
53497;SDS011;39382;47.168;16.008;2023-07-29T13:15:53;1.52;;;1.42;;
53497;SDS011;39382;47.168;16.008;2023-07-29T13:18:18;0.73;;;0.73;;
53497;SDS011;39382;47.168;16.008;2023-07-29T13:20:44;1.25;;;1.02;;
53497;SDS011;39382;47.168;16.008;2023-07-29T13:23:09;2.88;;;1.20;;
53497;SDS011;39382;47.168;16.008;2023-07-29T13:25:35;1.40;;;1.15;;
53497;SDS011;39382;47.168;16.008;2023-07-29T13:28:00;1.15;;;1.00;;
53497;SDS011;39382;47.168;16.008;2023-07-29T13:30:26;2.13;;;1.33;;
53497;SDS011;39382;47.168;16.008;2023-07-29T13:32:52;2.92;;;1.13;;
53497;SDS011;39382;47.168;16.008;2023-07-29T13:35:18;1.30;;;1.15;;
53497;SDS011;39382;47.168;16.008;2023-07-29T13:37:43;1.02;;;0.93;;
53497;SDS011;39382;47.168;16.008;2023-07-29T13:40:09;1.85;;;1.58;;
53497;SDS011;39382;47.168;16.008;2023-07-29T13:42:34;1.20;;;1.10;;
53497;SDS011;39382;47.168;16.008;2023-07-29T13:45:00;1.70;;;1.38;;
53497;SDS011;39382;47.168;16.008;2023-07-29T13:47:27;1.02;;;0.93;;
53497;SDS011;39382;47.168;16.008;2023-07-29T13:49:53;0.65;;;0.30;;
53497;SDS011;39382;47.168;16.008;2023-07-29T13:52:18;0.22;;;0.20;;
53497;SDS011;39382;47.168;16.008;2023-07-29T13:54:44;6.50;;;0.57;;
53497;SDS011;39382;47.168;16.008;2023-07-29T13:57:09;4.00;;;0.25;;
53497;SDS011;39382;47.168;16.008;2023-07-29T13:59:35;1.45;;;0.40;;
53497;SDS011;39382;47.168;16.008;2023-07-29T14:02:04;2.35;;;0.50;;
53497;SDS011;39382;47.168;16.008;2023-07-29T14:04:30;1.58;;;0.40;;
53497;SDS011;39382;47.168;16.008;2023-07-29T14:06:56;0.35;;;0.22;;
53497;SDS011;39382;47.168;16.008;2023-07-29T14:09:22;1.05;;;0.30;;
53497;SDS011;39382;47.168;16.008;2023-07-29T14:11:48;1.13;;;0.80;;
53497;SDS011;39382;47.168;16.008;2023-07-29T14:14:13;1.77;;;0.75;;
53497;SDS011;39382;47.168;16.008;2023-07-29T14:16:39;1.95;;;0.75;;
53497;SDS011;39382;47.168;16.008;2023-07-29T14:19:05;1.55;;;1.10;;
53497;SDS011;39382;47.168;16.008;2023-07-29T14:21:30;1.20;;;0.82;;
53497;SDS011;39382;47.168;16.008;2023-07-29T14:23:56;1.73;;;0.77;;
53497;SDS011;39382;47.168;16.008;2023-07-29T14:26:22;1.00;;;0.68;;
53497;SDS011;39382;47.168;16.008;2023-07-29T14:28:47;1.67;;;0.70;;
53497;SDS011;39382;47.168;16.008;2023-07-29T14:31:14;1.75;;;0.73;;
53497;SDS011;39382;47.168;16.008;2023-07-29T14:33:42;1.75;;;0.88;;
53497;SDS011;39382;47.168;16.008;2023-07-29T14:36:08;2.15;;;0.75;;
53497;SDS011;39382;47.168;16.008;2023-07-29T14:38:34;1.90;;;0.90;;
53497;SDS011;39382;47.168;16.008;2023-07-29T14:41:00;7.18;;;0.80;;
53497;SDS011;39382;47.168;16.008;2023-07-29T14:43:26;0.63;;;0.63;;
53497;SDS011;39382;47.168;16.008;2023-07-29T14:45:52;0.73;;;0.60;;
53497;SDS011;39382;47.168;16.008;2023-07-29T14:48:17;0.90;;;0.63;;
53497;SDS011;39382;47.168;16.008;2023-07-29T14:50:43;0.55;;;0.55;;